createdAt,value
2022-09-20T00:01:22.446Z,10.34
2022-09-20T00:03:52.176Z,10.42
2022-09-20T00:06:22.515Z,10.41
2022-09-20T00:08:50.532Z,10.31
2022-09-20T00:11:20.705Z,10.43
2022-09-20T00:13:50.889Z,10.44
2022-09-20T00:16:22.941Z,10.46
2022-09-20T00:18:51.298Z,10.47
2022-09-20T00:21:21.225Z,10.37
2022-09-20T00:23:49.171Z,10.27
2022-09-20T00:26:17.731Z,10.48
2022-09-20T00:28:47.168Z,10.50
2022-09-20T00:31:16.093Z,10.49
2022-09-20T00:34:02.855Z,10.51
2022-09-20T00:36:31.250Z,10.47
2022-09-20T00:39:01.540Z,10.51
2022-09-20T00:41:30.204Z,10.51
2022-09-20T00:43:58.553Z,10.39
2022-09-20T00:46:34.435Z,10.51
2022-09-20T00:49:09.613Z,10.40
2022-09-20T00:51:40.331Z,10.40
2022-09-20T00:54:11.388Z,10.34
2022-09-20T00:56:44.187Z,10.49
2022-09-20T00:59:17.009Z,10.41
2022-09-20T01:01:47.225Z,10.47
2022-09-20T01:04:17.867Z,10.46
2022-09-20T01:06:47.975Z,10.36
2022-09-20T01:09:16.421Z,10.45
2022-09-20T01:11:44.569Z,10.43
2022-09-20T01:14:15.096Z,10.42
2022-09-20T01:16:43.320Z,10.35
2022-09-20T01:19:21.281Z,10.43
2022-09-20T01:21:49.841Z,10.20
2022-09-20T01:24:24.438Z,10.45
2022-09-20T01:27:06.656Z,10.45
2022-09-20T01:29:48.001Z,10.47
2022-09-20T01:32:22.182Z,10.40
2022-09-20T01:34:55.842Z,10.49
2022-09-20T01:37:27.859Z,10.48
2022-09-20T01:40:05.148Z,10.40
2022-09-20T01:42:37.329Z,10.49
2022-09-20T01:45:16.107Z,10.49
2022-09-20T01:47:53.159Z,10.39
2022-09-20T01:50:32.187Z,10.42
2022-09-20T01:53:33.121Z,10.47
2022-09-20T01:56:37.775Z,10.48
2022-09-20T01:59:28.646Z,10.48
2022-09-20T02:02:10.355Z,10.47
2022-09-20T02:05:17.448Z,10.41
2022-09-20T02:08:10.113Z,10.46
2022-09-20T02:11:12.461Z,10.46
2022-09-20T02:14:06.383Z,10.29
2022-09-20T02:16:51.653Z,10.45
2022-09-20T02:19:34.851Z,10.33
2022-09-20T02:22:16.159Z,10.33
2022-09-20T02:24:52.005Z,10.43
2022-09-20T02:27:27.493Z,10.41
2022-09-20T02:30:11.517Z,10.35
2022-09-20T02:33:02.703Z,10.36
2022-09-20T02:35:48.384Z,10.32
2022-09-20T02:38:31.841Z,10.27
2022-09-20T02:41:24.299Z,10.21
2022-09-20T02:44:00.577Z,10.14
2022-09-20T02:46:35.744Z,10.16
2022-09-20T02:49:09.765Z,10.13
2022-09-20T02:51:41.908Z,9.51
2022-09-20T02:54:19.596Z,10.11
2022-09-20T02:56:56.268Z,10.08
2022-09-20T02:59:33.285Z,10.07
2022-09-20T03:02:10.336Z,10.04
2022-09-20T03:04:56.738Z,10.04
2022-09-20T03:07:35.211Z,10.04
2022-09-20T03:10:16.000Z,9.98
2022-09-20T03:12:56.336Z,10.07
2022-09-20T03:15:33.170Z,10.08
2022-09-20T03:18:09.499Z,10.07
2022-09-20T03:20:49.305Z,9.95
2022-09-20T03:23:37.011Z,10.05
2022-09-20T03:26:15.246Z,10.05
2022-09-20T03:29:00.595Z,10.06
2022-09-20T03:31:40.205Z,9.85
2022-09-20T03:34:21.833Z,10.04
2022-09-20T03:37:06.378Z,10.11
2022-09-20T03:40:16.899Z,10.12
2022-09-20T03:42:48.854Z,10.08
2022-09-20T03:45:42.511Z,10.08
2022-09-20T03:48:39.609Z,10.06
2022-09-20T03:51:16.850Z,10.00
2022-09-20T03:54:17.301Z,10.08
2022-09-20T03:57:30.541Z,10.04
2022-09-20T04:00:24.068Z,10.06
2022-09-20T04:03:30.056Z,9.98
2022-09-20T04:06:19.349Z,10.11
2022-09-20T04:09:06.106Z,10.07
2022-09-20T04:11:44.576Z,9.47
2022-09-20T04:14:20.822Z,10.11
2022-09-20T04:16:56.881Z,10.11
2022-09-20T04:19:32.912Z,10.12
2022-09-20T04:22:03.293Z,10.12
2022-09-20T04:24:39.266Z,9.86
2022-09-20T04:27:14.162Z,10.11
2022-09-20T04:29:50.872Z,9.99
2022-09-20T04:32:26.416Z,10.09
2022-09-20T04:35:21.457Z,9.96
2022-09-20T04:37:51.065Z,10.09
2022-09-20T04:40:36.266Z,10.08
2022-09-20T04:43:40.472Z,10.11
2022-09-20T04:46:35.773Z,10.13
2022-09-20T04:49:29.963Z,10.12
2022-09-20T04:52:47.829Z,10.14
2022-09-20T04:55:47.048Z,10.07
2022-09-20T04:58:38.470Z,10.14
2022-09-20T05:01:44.907Z,10.07
2022-09-20T05:04:57.356Z,10.08
2022-09-20T05:08:00.919Z,10.16
2022-09-20T05:11:06.950Z,10.12
2022-09-20T05:13:43.729Z,10.12
2022-09-20T05:16:23.310Z,10.18
2022-09-20T05:19:17.554Z,10.20
2022-09-20T05:21:54.000Z,10.21
2022-09-20T05:24:38.478Z,10.15
2022-09-20T05:27:22.483Z,10.23
2022-09-20T05:29:57.023Z,10.00
2022-09-20T05:32:35.012Z,10.27
2022-09-20T05:35:12.636Z,10.29
2022-09-20T05:37:47.902Z,10.24
2022-09-20T05:40:24.729Z,10.34
2022-09-20T05:42:59.143Z,10.26
2022-09-20T05:45:54.232Z,10.39
2022-09-20T05:48:32.192Z,10.41
2022-09-20T05:51:05.755Z,10.43
2022-09-20T05:53:58.845Z,10.34
2022-09-20T05:56:40.591Z,10.47
2022-09-20T05:59:22.545Z,10.47
2022-09-20T06:02:01.983Z,10.48
2022-09-20T06:04:43.055Z,10.38
2022-09-20T06:07:26.813Z,10.53
2022-09-20T06:10:15.546Z,10.55
2022-09-20T06:12:56.620Z,10.57
2022-09-20T06:15:30.467Z,10.55
2022-09-20T06:18:05.439Z,10.58
2022-09-20T06:20:44.221Z,10.60
2022-09-20T06:23:13.075Z,10.60
2022-09-20T06:25:46.580Z,10.62
2022-09-20T06:28:18.920Z,10.68
2022-09-20T06:30:49.864Z,10.66
2022-09-20T06:33:20.750Z,10.78
2022-09-20T06:35:58.711Z,10.83
2022-09-20T06:39:04.476Z,10.95
2022-09-20T06:41:35.913Z,11.01
2022-09-20T06:44:06.626Z,10.97
2022-09-20T06:46:36.535Z,11.14
2022-09-20T06:49:08.358Z,11.30
2022-09-20T06:51:39.422Z,11.29
2022-09-20T06:54:11.503Z,11.51
2022-09-20T06:56:39.576Z,11.60
2022-09-20T06:59:08.604Z,11.62
2022-09-20T07:01:36.903Z,11.62
2022-09-20T07:04:06.196Z,11.45
2022-09-20T07:06:34.541Z,11.19
2022-09-20T07:09:04.241Z,11.85
2022-09-20T07:11:34.273Z,12.09
2022-09-20T07:14:02.935Z,12.39
2022-09-20T07:16:30.860Z,12.57
2022-09-20T07:19:00.593Z,12.82
2022-09-20T07:21:28.496Z,12.87
2022-09-20T07:23:57.862Z,12.88
2022-09-20T07:26:29.270Z,12.89
2022-09-20T07:28:57.863Z,12.82
2022-09-20T07:31:27.805Z,12.80
2022-09-20T07:33:56.359Z,12.48
2022-09-20T07:36:24.304Z,13.22
2022-09-20T07:38:53.847Z,13.28
2022-09-20T07:41:23.044Z,13.04
2022-09-20T07:43:52.367Z,13.09
2022-09-20T07:46:22.335Z,13.09
2022-09-20T07:48:50.545Z,12.98
2022-09-20T07:51:18.397Z,12.85
2022-09-20T07:53:46.346Z,12.67
2022-09-20T07:56:16.728Z,12.68
2022-09-20T07:58:48.599Z,12.62
2022-09-20T08:01:22.915Z,12.45
2022-09-20T08:03:51.196Z,12.40
2022-09-20T08:06:21.301Z,11.92
2022-09-20T08:08:51.898Z,12.30
2022-09-20T08:11:27.745Z,11.96
2022-09-20T08:14:12.842Z,12.43
2022-09-20T08:16:43.977Z,12.50
2022-09-20T08:19:17.184Z,12.59
2022-09-20T08:21:45.149Z,12.18
2022-09-20T08:24:13.598Z,12.76
2022-09-20T08:26:42.139Z,12.81
2022-09-20T08:29:09.959Z,12.97
2022-09-20T08:31:42.397Z,13.50
2022-09-20T08:34:15.118Z,14.20
2022-09-20T08:36:46.910Z,14.48
2022-09-20T08:42:16.171Z,14.92
2022-09-20T08:45:00.502Z,15.06
2022-09-20T08:47:32.237Z,15.37
2022-09-20T08:50:17.218Z,15.49
2022-09-20T08:52:48.684Z,16.24
2022-09-20T08:55:18.720Z,16.94
2022-09-20T08:57:50.272Z,17.33
2022-09-20T09:00:20.452Z,17.31
2022-09-20T09:02:51.073Z,17.17
2022-09-20T09:05:33.566Z,17.16
2022-09-20T09:08:05.468Z,17.25
2022-09-20T09:10:42.613Z,17.40
2022-09-20T09:13:19.794Z,17.46
2022-09-20T09:15:54.072Z,16.50
2022-09-20T09:18:21.904Z,17.23
2022-09-20T09:20:51.804Z,17.76
2022-09-20T09:23:26.971Z,18.33
2022-09-20T09:25:55.938Z,18.27
2022-09-20T09:28:25.927Z,18.14
2022-09-20T09:30:54.432Z,17.79
2022-09-20T09:33:28.123Z,17.61
2022-09-20T09:36:00.486Z,17.25
2022-09-20T09:38:30.605Z,17.00
2022-09-20T09:41:00.806Z,16.67
2022-09-20T09:43:30.294Z,16.34
2022-09-20T09:46:18.537Z,15.64
2022-09-20T09:48:50.287Z,15.51
2022-09-20T09:51:23.529Z,15.64
2022-09-20T09:53:52.921Z,15.43
2022-09-20T09:56:41.405Z,15.18
2022-09-20T09:59:32.161Z,15.75
2022-09-20T10:02:15.014Z,16.32
2022-09-20T10:04:48.227Z,17.03
2022-09-20T10:07:25.144Z,17.73
2022-09-20T10:10:09.353Z,18.50
2022-09-20T10:12:52.016Z,18.56
2022-09-20T10:15:34.494Z,18.61
2022-09-20T10:18:28.239Z,18.06
2022-09-20T10:21:20.384Z,17.93
2022-09-20T10:24:04.354Z,18.46
2022-09-20T10:27:28.364Z,18.92
2022-09-20T10:30:04.102Z,19.30
2022-09-20T10:32:47.637Z,19.60
2022-09-20T10:35:24.555Z,20.00
2022-09-20T10:38:19.897Z,19.60
2022-09-20T10:41:21.968Z,18.79
2022-09-20T10:44:11.134Z,18.03
2022-09-20T10:46:53.672Z,16.93
2022-09-20T10:49:28.299Z,15.79
2022-09-20T10:52:08.614Z,16.05
2022-09-20T10:54:49.193Z,15.82
2022-09-20T10:57:51.410Z,15.60
2022-09-20T11:00:23.994Z,15.32
2022-09-20T11:03:16.105Z,15.48
2022-09-20T11:05:54.915Z,15.94
2022-09-20T11:08:27.926Z,16.11
2022-09-20T11:10:59.101Z,17.20
2022-09-20T11:13:35.131Z,17.64
2022-09-20T11:16:10.519Z,17.68
2022-09-20T11:18:43.261Z,18.09
2022-09-20T11:21:18.949Z,18.70
2022-09-20T11:23:55.245Z,19.37
2022-09-20T11:26:29.953Z,19.29
2022-09-20T11:29:05.957Z,18.48
2022-09-20T11:31:40.871Z,17.96
2022-09-20T11:34:15.550Z,17.37
2022-09-20T11:36:52.394Z,16.96
2022-09-20T11:39:25.028Z,16.36
2022-09-20T11:41:56.936Z,15.65
2022-09-20T11:44:26.613Z,15.81
2022-09-20T11:47:00.004Z,15.52
2022-09-20T11:49:33.501Z,15.51
2022-09-20T11:52:35.244Z,15.14
2022-09-20T11:55:42.625Z,15.30
2022-09-20T11:58:16.033Z,15.22
2022-09-20T12:00:48.553Z,14.88
2022-09-20T12:03:29.866Z,14.67
2022-09-20T12:06:00.695Z,14.43
2022-09-20T12:08:31.816Z,14.27
2022-09-20T12:11:04.243Z,14.12
2022-09-20T12:13:36.520Z,14.08
2022-09-20T12:16:09.005Z,14.17
2022-09-20T12:18:49.140Z,14.28
2022-09-20T12:21:20.392Z,14.39
2022-09-20T12:24:19.779Z,14.43
2022-09-20T12:26:52.885Z,14.21
2022-09-20T12:30:05.641Z,14.47
2022-09-20T12:32:46.113Z,14.60
2022-09-20T12:35:57.156Z,14.70
2022-09-20T12:38:31.501Z,14.76
2022-09-20T12:41:01.758Z,14.78
2022-09-20T12:43:31.306Z,14.59
2022-09-20T12:46:04.490Z,14.42
2022-09-20T12:48:39.024Z,14.49
2022-09-20T12:51:38.036Z,14.09
2022-09-20T12:54:08.783Z,14.30
2022-09-20T12:56:39.231Z,14.12
2022-09-20T12:59:21.237Z,13.94
2022-09-20T13:01:49.233Z,14.05
2022-09-20T13:04:56.592Z,13.90
2022-09-20T13:07:44.147Z,13.64
2022-09-20T13:10:25.401Z,13.58
2022-09-20T13:12:57.504Z,13.39
2022-09-20T13:15:25.745Z,13.27
2022-09-20T13:17:56.188Z,13.29
2022-09-20T13:20:29.994Z,13.39
2022-09-20T13:23:01.444Z,13.58
2022-09-20T13:25:29.658Z,13.73
2022-09-20T13:28:07.043Z,14.49
2022-09-20T13:30:35.347Z,15.29
2022-09-20T13:33:23.614Z,15.36
2022-09-20T13:35:54.600Z,15.13
2022-09-20T13:38:27.999Z,14.77
2022-09-20T13:41:04.819Z,14.72
2022-09-20T13:43:37.348Z,14.68
2022-09-20T13:46:10.019Z,14.67
2022-09-20T13:48:38.116Z,14.63
2022-09-20T13:51:17.684Z,14.76
2022-09-20T13:53:47.929Z,14.94
2022-09-20T13:56:21.982Z,15.47
2022-09-20T13:58:50.832Z,16.25
2022-09-20T14:01:25.618Z,16.76
2022-09-20T14:03:54.534Z,17.10
2022-09-20T14:06:28.304Z,17.33
2022-09-20T14:09:00.097Z,17.51
2022-09-20T14:11:31.273Z,17.15
2022-09-20T14:14:01.717Z,16.60
2022-09-20T14:16:32.790Z,16.03
2022-09-20T14:19:01.909Z,15.39
2022-09-20T14:21:34.889Z,14.76
2022-09-20T14:24:07.719Z,14.48
2022-09-20T14:26:37.411Z,14.15
2022-09-20T14:29:30.962Z,13.22
2022-09-20T14:32:01.782Z,13.68
2022-09-20T14:34:29.875Z,13.58
2022-09-20T14:37:06.533Z,13.50
2022-09-20T14:39:44.962Z,13.31
2022-09-20T14:42:20.931Z,13.26
2022-09-20T14:44:53.047Z,13.16
2022-09-20T14:47:27.723Z,13.19
2022-09-20T14:49:56.124Z,13.14
2022-09-20T14:52:38.710Z,13.09
2022-09-20T14:55:21.530Z,12.37
2022-09-20T14:57:50.552Z,13.03
2022-09-20T15:00:19.568Z,12.95
2022-09-20T15:02:48.386Z,13.06
2022-09-20T15:05:24.105Z,12.96
2022-09-20T15:07:51.975Z,12.83
2022-09-20T15:10:21.376Z,12.72
2022-09-20T15:12:49.596Z,12.64
2022-09-20T15:15:19.361Z,12.27
2022-09-20T15:17:48.647Z,12.65
2022-09-20T15:20:24.042Z,12.58
2022-09-20T15:22:52.598Z,12.64
2022-09-20T15:25:22.676Z,12.74
2022-09-20T15:27:50.954Z,12.85
2022-09-20T15:30:21.120Z,12.87
2022-09-20T15:32:49.612Z,12.82
2022-09-20T15:35:17.617Z,12.65
2022-09-20T15:37:45.805Z,12.58
2022-09-20T15:40:13.910Z,12.62
2022-09-20T15:42:43.363Z,12.64
2022-09-20T15:45:13.457Z,12.75
2022-09-20T15:47:41.860Z,12.86
2022-09-20T15:50:10.989Z,12.94
2022-09-20T15:52:41.617Z,12.96
2022-09-20T15:55:11.097Z,13.00
2022-09-20T15:57:39.596Z,13.01
2022-09-20T16:00:10.065Z,12.77
2022-09-20T16:02:38.291Z,12.78
2022-09-20T16:05:06.662Z,12.65
2022-09-20T16:07:34.809Z,12.54
2022-09-20T16:10:02.898Z,12.40
2022-09-20T16:12:30.815Z,12.30
2022-09-20T16:14:58.784Z,12.17
2022-09-20T16:17:41.980Z,12.01
2022-09-20T16:20:10.750Z,11.86
2022-09-20T16:22:38.544Z,11.71
2022-09-20T16:25:08.498Z,11.59
2022-09-20T16:27:36.409Z,11.45
2022-09-20T16:30:04.556Z,11.30
2022-09-20T16:32:34.272Z,11.21
2022-09-20T16:35:07.149Z,11.13
2022-09-20T16:37:36.931Z,10.77
2022-09-20T16:40:05.444Z,10.92
2022-09-20T16:42:33.484Z,10.86
2022-09-20T16:45:01.458Z,10.79
2022-09-20T16:47:29.701Z,10.70
2022-09-20T16:49:58.872Z,10.56
2022-09-20T16:52:27.602Z,10.56
2022-09-20T16:54:56.099Z,10.50
2022-09-20T16:57:23.911Z,10.33
2022-09-20T16:59:54.259Z,10.37
2022-09-20T17:02:22.363Z,10.12
2022-09-20T17:04:50.275Z,10.27
2022-09-20T17:07:19.669Z,10.20
2022-09-20T17:09:47.576Z,9.15
2022-09-20T17:12:19.123Z,10.10
2022-09-20T17:14:47.000Z,10.03
2022-09-20T17:17:14.997Z,9.96
2022-09-20T17:19:42.841Z,9.75
2022-09-20T17:22:11.650Z,9.83
2022-09-20T17:24:40.935Z,9.72
2022-09-20T17:27:09.446Z,9.70
2022-09-20T17:29:37.585Z,9.66
2022-09-20T17:32:05.674Z,9.55
2022-09-20T17:34:33.993Z,9.56
2022-09-20T17:37:03.569Z,9.26
2022-09-20T17:39:31.497Z,9.48
2022-09-20T17:42:01.449Z,9.41
2022-09-20T17:44:29.617Z,9.38
2022-09-20T17:46:57.703Z,9.33
2022-09-20T17:49:26.968Z,9.29
2022-09-20T17:51:56.717Z,9.27
2022-09-20T17:54:25.300Z,9.03
2022-09-20T17:56:56.199Z,9.03
2022-09-20T17:59:25.967Z,9.10
2022-09-20T18:01:54.857Z,9.06
2022-09-20T18:04:24.644Z,9.09
2022-09-20T18:06:54.522Z,8.92
2022-09-20T18:09:24.231Z,9.00
2022-09-20T18:11:54.352Z,8.83
2022-09-20T18:14:24.298Z,8.88
2022-09-20T18:16:55.949Z,8.84
2022-09-20T18:19:24.431Z,8.71
2022-09-20T18:21:52.850Z,8.59
2022-09-20T18:24:20.709Z,8.65
2022-09-20T18:26:48.672Z,8.48
2022-09-20T18:29:18.370Z,8.55
2022-09-20T18:31:48.861Z,8.50
2022-09-20T18:34:20.033Z,8.44
2022-09-20T18:36:52.565Z,8.41
2022-09-20T18:39:21.876Z,7.89
2022-09-20T18:41:50.437Z,8.34
2022-09-20T18:44:22.719Z,8.19
2022-09-20T18:46:53.559Z,8.25
2022-09-20T18:49:23.863Z,8.19
2022-09-20T18:51:51.669Z,8.16
2022-09-20T18:54:19.870Z,8.14
2022-09-20T18:56:49.885Z,8.03
2022-09-20T18:59:20.556Z,8.10
2022-09-20T19:02:18.218Z,8.10
2022-09-20T19:05:08.574Z,8.07
2022-09-20T19:07:48.952Z,8.03
2022-09-20T19:10:26.217Z,8.00
2022-09-20T19:13:02.598Z,7.98
2022-09-20T19:15:49.960Z,7.96
2022-09-20T19:18:32.597Z,7.64
2022-09-20T19:21:17.013Z,7.89
2022-09-20T19:24:02.938Z,7.88
2022-09-20T19:26:38.151Z,7.86
2022-09-20T19:29:26.295Z,7.83
2022-09-20T19:31:57.153Z,7.17
2022-09-20T19:34:28.190Z,7.54
2022-09-20T19:37:08.433Z,7.59
2022-09-20T19:39:50.638Z,7.78
2022-09-20T19:42:29.930Z,7.75
2022-09-20T19:45:04.991Z,7.63
2022-09-20T19:47:46.445Z,7.72
2022-09-20T19:50:18.561Z,7.60
2022-09-20T19:52:50.056Z,7.69
2022-09-20T19:55:29.837Z,7.65
2022-09-20T19:57:59.204Z,7.64
2022-09-20T20:00:29.289Z,7.62
2022-09-20T20:02:58.144Z,7.09
2022-09-20T20:05:28.563Z,7.59
2022-09-20T20:08:12.305Z,7.39
2022-09-20T20:10:51.980Z,7.39
2022-09-20T20:13:50.818Z,7.47
2022-09-20T20:16:26.002Z,7.44
2022-09-20T20:19:08.437Z,7.44
2022-09-20T20:21:46.648Z,7.42
2022-09-20T20:24:26.966Z,7.38
2022-09-20T20:26:54.755Z,7.26
2022-09-20T20:29:22.904Z,7.35
2022-09-20T20:31:50.862Z,7.33
2022-09-20T20:34:20.544Z,7.29
2022-09-20T20:36:49.827Z,7.26
2022-09-20T20:39:19.069Z,7.27
2022-09-20T20:41:52.504Z,7.18
2022-09-20T20:44:21.004Z,7.15
2022-09-20T20:46:49.049Z,7.19
2022-09-20T20:49:17.725Z,7.05
2022-09-20T20:51:45.869Z,7.15
2022-09-20T20:54:13.649Z,7.14
2022-09-20T20:56:43.062Z,6.71
2022-09-20T20:59:11.051Z,7.09
2022-09-20T21:01:42.912Z,7.05
2022-09-20T21:04:11.436Z,7.02
2022-09-20T21:06:41.649Z,6.93
2022-09-20T21:09:10.897Z,6.95
2022-09-20T21:11:40.439Z,6.95
2022-09-20T21:14:10.529Z,6.94
2022-09-20T21:16:42.545Z,6.81
2022-09-20T21:19:14.788Z,6.90
2022-09-20T21:21:44.092Z,6.87
2022-09-20T21:24:13.765Z,6.75
2022-09-20T21:26:42.131Z,6.81
2022-09-20T21:29:13.295Z,6.79
2022-09-20T21:31:43.063Z,6.77
2022-09-20T21:34:12.735Z,6.74
2022-09-20T21:36:42.696Z,6.71
2022-09-20T21:39:10.874Z,6.68
2022-09-20T21:41:39.692Z,6.64
2022-09-20T21:44:09.957Z,6.61
2022-09-20T21:46:41.072Z,6.57
2022-09-20T21:49:11.020Z,6.56
2022-09-20T21:51:40.344Z,6.54
2022-09-20T21:54:08.368Z,6.50
2022-09-20T21:56:37.947Z,6.48
2022-09-20T21:59:07.823Z,6.47
2022-09-20T22:01:37.224Z,6.45
2022-09-20T22:04:08.441Z,6.43
2022-09-20T22:06:37.977Z,5.76
2022-09-20T22:09:08.508Z,5.88
2022-09-20T22:11:39.247Z,6.26
2022-09-20T22:14:07.824Z,6.11
2022-09-20T22:16:38.105Z,6.35
2022-09-20T22:19:08.347Z,6.27
2022-09-20T22:21:38.251Z,6.30
2022-09-20T22:24:07.816Z,6.22
2022-09-20T22:26:37.654Z,6.24
2022-09-20T22:29:06.480Z,6.17
2022-09-20T22:31:37.924Z,6.21
2022-09-20T22:34:08.592Z,6.19
2022-09-20T22:36:38.110Z,6.16
2022-09-20T22:39:07.555Z,6.01
2022-09-20T22:41:36.174Z,5.83
2022-09-20T22:44:04.147Z,6.12
2022-09-20T22:46:32.422Z,6.03
2022-09-20T22:49:00.547Z,6.11
2022-09-20T22:51:33.246Z,5.92
2022-09-20T22:54:01.602Z,5.92
2022-09-20T22:56:31.212Z,6.00
2022-09-20T22:59:00.719Z,5.96
2022-09-20T23:01:30.622Z,5.51
2022-09-20T23:04:01.277Z,5.83
2022-09-20T23:06:32.951Z,5.92
2022-09-20T23:09:02.396Z,5.95
2022-09-20T23:11:30.793Z,5.67
2022-09-20T23:14:05.383Z,5.65
2022-09-20T23:16:39.269Z,3.91
2022-09-20T23:19:10.051Z,5.88
2022-09-20T23:21:41.543Z,4.57
2022-09-20T23:24:16.970Z,5.87
2022-09-20T23:26:47.011Z,5.10
2022-09-20T23:29:16.530Z,3.63
2022-09-20T23:31:47.458Z,5.89
2022-09-20T23:34:17.710Z,5.88
2022-09-20T23:36:49.070Z,5.89
2022-09-20T23:39:17.858Z,3.76
2022-09-20T23:41:51.553Z,5.86
2022-09-20T23:44:24.111Z,3.14
2022-09-20T23:46:52.631Z,5.85
2022-09-20T23:49:23.948Z,5.84
2022-09-20T23:51:53.797Z,5.83
2022-09-20T23:54:21.691Z,4.81
2022-09-20T23:56:50.012Z,3.96
2022-09-20T23:59:21.105Z,4.55
